Chiricana — 3EKU3 — position and weather

sailwx.info

Track history (hours):
 
Tides and Currents Weather Stations Pressure Air Temp Water Temp Dewpoint Dewpoint Depression Visibility Wind Speed Wind Dir Waves Ship Positions

Chiricana

Last reported at 2015-May-19 12:26 UTC. Time now 2015-May-24 05:09 UTC.
Position N 32°39' W 078°37'.

Length 300 m; draft 12.2 m.

Type: Ship (hazmat cat D). MMSI: 372829000.

Date/timePositionNaut miles runAvg speedWind from/ knotsBaromVisibWave heightAir tempDewpointWater temp
2015-May-19 12:26N 32°39' W 078°37'4013.9
2015-May-19 09:33N 32°38' W 079°24'1313.0
2015-May-19 08:33N 32°39' W 079°39'16 8.1
2015-May-19 06:34N 32°50' W 079°54'0 0.0
2015-May-19 05:34N 32°50' W 079°54'0 0.0
2015-May-19 04:32N 32°50' W 079°54'0 0.0
2015-May-19 03:29N 32°50' W 079°54'0 0.0
2015-May-19 02:20N 32°50' W 079°54'0 0.0
2015-May-19 01:32N 32°50' W 079°54'0 0.0
2015-May-18 12:11N 32°50' W 079°54'  
2015-May-16 01:13N 31°52' W 080°30'1015.9
2015-May-16 00:33N 31°57' W 080°41'1212.3
2015-May-15 23:33N 32°02' W 080°54'9 8.6
2015-May-15 22:33N 32°05' W 081°04'5 5.0
2015-May-15 21:34N 32°08' W 081°08'0 0.3
2015-May-15 20:33N 32°08' W 081°08'0 0.0
2015-May-15 19:32N 32°08' W 081°08'0 0.0
2015-May-15 18:32N 32°08' W 081°08'0 0.0
2015-May-15 17:32N 32°08' W 081°08'0 0.0
2015-May-15 16:32N 32°08' W 081°08'0 0.0
2015-May-15 15:32N 32°08' W 081°08'0 0.0
2015-May-15 14:23N 32°08' W 081°08'0 0.0
2015-May-15 13:32N 32°08' W 081°08'0 0.0
2015-May-15 12:32N 32°08' W 081°08'0 0.0
2015-May-15 11:32N 32°08' W 081°08'0 0.0
2015-May-15 10:32N 32°08' W 081°08'0 0.0
2015-May-15 09:32N 32°08' W 081°08'0 0.0
2015-May-15 08:32N 32°08' W 081°08'0 0.0
2015-May-15 07:32N 32°08' W 081°08'0 0.0
2015-May-15 06:32N 32°08' W 081°08'0 0.0
2015-May-15 05:29N 32°08' W 081°08'0 0.0
2015-May-15 04:33N 32°08' W 081°08'0 0.0
2015-May-15 03:32N 32°08' W 081°08'0 0.0
2015-May-15 02:32N 32°08' W 081°08'0 0.0
2015-May-15 01:32N 32°08' W 081°08'0 0.0
2015-May-15 00:32N 32°08' W 081°08'0 0.0
2015-May-14 23:32N 32°08' W 081°08'0 0.0
2015-May-14 22:32N 32°08' W 081°08'0 0.0
2015-May-14 21:32N 32°08' W 081°08'0 0.0
2015-May-14 20:32N 32°08' W 081°08'0 0.0
2015-May-14 19:32N 32°08' W 081°08'0 0.0
2015-May-14 18:32N 32°08' W 081°08'0 0.0
2015-May-14 17:32N 32°08' W 081°08'0 0.0
2015-May-14 16:32N 32°08' W 081°08'0 0.0
2015-May-14 15:32N 32°08' W 081°08'0 0.0
2015-May-14 14:32N 32°08' W 081°08'0 0.0
2015-May-14 13:32N 32°08' W 081°08'0 0.0
2015-May-14 12:32N 32°08' W 081°08'0 0.0
2015-May-14 11:33N 32°08' W 081°08'4 3.5
2015-May-14 10:33N 32°05' W 081°06'5 5.2
2015-May-14 09:33N 32°05' W 080°59'1010.4
2015-May-14 08:33N 32°01' W 080°48'1010.1
2015-May-14 07:33N 31°56' W 080°38'1212.2
2015-May-14 06:34N 31°56' W 080°24'1817.8
2015-May-14 05:34N 32°02' W 080°04'2118.3
2015-May-14 04:24N 32°09' W 079°40'1618.3
2015-May-14 03:32N 32°14' W 079°23'1818.3
2015-May-14 02:32N 32°21' W 079°02'18518.0
2015-May-13 16:17N 34°16' W 076°10'1819.6
2015-May-13 15:21N 34°28' W 075°53'1718.8
2015-May-13 14:26N 34°39' W 075°37'  
2015-May-10 19:00N 39°24' W 061°42'51619.1 200 / 25 10.8 22.0
2015-May-09 16:00N 40°48' W 050°36'   340 / 28 5.4 7.0
Track history (hours):
 
Tides and Currents Weather Stations Pressure Air Temp Water Temp Dewpoint Dewpoint Depression Visibility Wind Speed Wind Dir Waves Ship Positions

Chiricana

Last reported at 2015-May-19 12:26 UTC. Time now 2015-May-24 05:09 UTC.
Position N 32°39' W 078°37'.

Length 300 m; draft 12.2 m.

Type: Ship (hazmat cat D). MMSI: 372829000.

Date/timePositionNaut miles runAvg speedWind from/ knotsBaromVisibWave heightAir tempDewpointWater temp
2015-May-19 12:26N 32°39' W 078°37'4013.9
2015-May-19 09:33N 32°38' W 079°24'1313.0
2015-May-19 08:33N 32°39' W 079°39'16 8.1
2015-May-19 06:34N 32°50' W 079°54'0 0.0
2015-May-19 05:34N 32°50' W 079°54'0 0.0
2015-May-19 04:32N 32°50' W 079°54'0 0.0
2015-May-19 03:29N 32°50' W 079°54'0 0.0
2015-May-19 02:20N 32°50' W 079°54'0 0.0
2015-May-19 01:32N 32°50' W 079°54'0 0.0
2015-May-18 12:11N 32°50' W 079°54'  
2015-May-16 01:13N 31°52' W 080°30'1015.9
2015-May-16 00:33N 31°57' W 080°41'1212.3
2015-May-15 23:33N 32°02' W 080°54'9 8.6
2015-May-15 22:33N 32°05' W 081°04'5 5.0
2015-May-15 21:34N 32°08' W 081°08'0 0.3
2015-May-15 20:33N 32°08' W 081°08'0 0.0
2015-May-15 19:32N 32°08' W 081°08'0 0.0
2015-May-15 18:32N 32°08' W 081°08'0 0.0
2015-May-15 17:32N 32°08' W 081°08'0 0.0
2015-May-15 16:32N 32°08' W 081°08'0 0.0
2015-May-15 15:32N 32°08' W 081°08'0 0.0
2015-May-15 14:23N 32°08' W 081°08'0 0.0
2015-May-15 13:32N 32°08' W 081°08'0 0.0
2015-May-15 12:32N 32°08' W 081°08'0 0.0
2015-May-15 11:32N 32°08' W 081°08'0 0.0
2015-May-15 10:32N 32°08' W 081°08'0 0.0
2015-May-15 09:32N 32°08' W 081°08'0 0.0
2015-May-15 08:32N 32°08' W 081°08'0 0.0
2015-May-15 07:32N 32°08' W 081°08'0 0.0
2015-May-15 06:32N 32°08' W 081°08'0 0.0
2015-May-15 05:29N 32°08' W 081°08'0 0.0
2015-May-15 04:33N 32°08' W 081°08'0 0.0
2015-May-15 03:32N 32°08' W 081°08'0 0.0
2015-May-15 02:32N 32°08' W 081°08'0 0.0
2015-May-15 01:32N 32°08' W 081°08'0 0.0
2015-May-15 00:32N 32°08' W 081°08'0 0.0
2015-May-14 23:32N 32°08' W 081°08'0 0.0
2015-May-14 22:32N 32°08' W 081°08'0 0.0
2015-May-14 21:32N 32°08' W 081°08'0 0.0
2015-May-14 20:32N 32°08' W 081°08'0 0.0
2015-May-14 19:32N 32°08' W 081°08'0 0.0
2015-May-14 18:32N 32°08' W 081°08'0 0.0
2015-May-14 17:32N 32°08' W 081°08'0 0.0
2015-May-14 16:32N 32°08' W 081°08'0 0.0
2015-May-14 15:32N 32°08' W 081°08'0 0.0
2015-May-14 14:32N 32°08' W 081°08'0 0.0
2015-May-14 13:32N 32°08' W 081°08'0 0.0
2015-May-14 12:32N 32°08' W 081°08'0 0.0
2015-May-14 11:33N 32°08' W 081°08'4 3.5
2015-May-14 10:33N 32°05' W 081°06'5 5.2
2015-May-14 09:33N 32°05' W 080°59'1010.4
2015-May-14 08:33N 32°01' W 080°48'1010.1
2015-May-14 07:33N 31°56' W 080°38'1212.2
2015-May-14 06:34N 31°56' W 080°24'1817.8
2015-May-14 05:34N 32°02' W 080°04'2118.3
2015-May-14 04:24N 32°09' W 079°40'1618.3
2015-May-14 03:32N 32°14' W 079°23'1818.3
2015-May-14 02:32N 32°21' W 079°02'18518.0
2015-May-13 16:17N 34°16' W 076°10'1819.6
2015-May-13 15:21N 34°28' W 075°53'1718.8
2015-May-13 14:26N 34°39' W 075°37'  
2015-May-10 19:00N 39°24' W 061°42'51619.1 200 / 25 10.8 22.0
2015-May-09 16:00N 40°48' W 050°36'   340 / 28 5.4 7.0

Dump ship's entire track history